sensor_id;sensor_type;location;lat;lon;timestamp;P1;durP1;ratioP1;P2;durP2;ratioP2
38465;SDS011;24244;51.950;5.902;2022-10-26T00:00:01;13.52;;;6.90;;
38465;SDS011;24244;51.950;5.902;2022-10-26T00:02:29;12.20;;;7.25;;
38465;SDS011;24244;51.950;5.902;2022-10-26T00:04:57;12.98;;;7.25;;
38465;SDS011;24244;51.950;5.902;2022-10-26T00:07:23;11.05;;;7.05;;
38465;SDS011;24244;51.950;5.902;2022-10-26T00:09:51;12.82;;;6.88;;
38465;SDS011;24244;51.950;5.902;2022-10-26T00:12:17;10.77;;;6.47;;
38465;SDS011;24244;51.950;5.902;2022-10-26T00:14:44;12.73;;;6.47;;
38465;SDS011;24244;51.950;5.902;2022-10-26T00:17:11;12.43;;;7.05;;
38465;SDS011;24244;51.950;5.902;2022-10-26T00:19:38;9.98;;;6.43;;
38465;SDS011;24244;51.950;5.902;2022-10-26T00:22:06;10.65;;;6.65;;
38465;SDS011;24244;51.950;5.902;2022-10-26T00:24:33;11.60;;;6.80;;
38465;SDS011;24244;51.950;5.902;2022-10-26T00:26:59;12.02;;;6.35;;
38465;SDS011;24244;51.950;5.902;2022-10-26T00:29:26;10.88;;;6.53;;
38465;SDS011;24244;51.950;5.902;2022-10-26T00:31:52;11.50;;;5.85;;
38465;SDS011;24244;51.950;5.902;2022-10-26T00:34:20;11.32;;;6.22;;
38465;SDS011;24244;51.950;5.902;2022-10-26T00:36:47;13.18;;;7.38;;
38465;SDS011;24244;51.950;5.902;2022-10-26T00:39:15;11.55;;;5.97;;
38465;SDS011;24244;51.950;5.902;2022-10-26T00:41:42;10.60;;;6.30;;
38465;SDS011;24244;51.950;5.902;2022-10-26T00:47:12;11.93;;;6.35;;
38465;SDS011;24244;51.950;5.902;2022-10-26T00:49:42;10.50;;;6.68;;
38465;SDS011;24244;51.950;5.902;2022-10-26T00:52:12;9.40;;;6.40;;
38465;SDS011;24244;51.950;5.902;2022-10-26T00:54:42;12.27;;;6.60;;
38465;SDS011;24244;51.950;5.902;2022-10-26T00:57:09;10.80;;;6.35;;
38465;SDS011;24244;51.950;5.902;2022-10-26T00:59:37;11.23;;;6.28;;
38465;SDS011;24244;51.950;5.902;2022-10-26T01:02:04;14.35;;;6.40;;
38465;SDS011;24244;51.950;5.902;2022-10-26T01:04:31;11.27;;;6.43;;
38465;SDS011;24244;51.950;5.902;2022-10-26T01:06:58;12.20;;;6.60;;
38465;SDS011;24244;51.950;5.902;2022-10-26T01:09:26;9.95;;;5.80;;
38465;SDS011;24244;51.950;5.902;2022-10-26T01:11:55;11.77;;;6.85;;
38465;SDS011;24244;51.950;5.902;2022-10-26T01:14:21;12.37;;;6.47;;
38465;SDS011;24244;51.950;5.902;2022-10-26T01:16:53;10.48;;;6.20;;
38465;SDS011;24244;51.950;5.902;2022-10-26T01:19:40;12.50;;;5.97;;
38465;SDS011;24244;51.950;5.902;2022-10-26T01:22:22;9.90;;;5.57;;
38465;SDS011;24244;51.950;5.902;2022-10-26T01:25:06;10.77;;;5.85;;
38465;SDS011;24244;51.950;5.902;2022-10-26T01:27:43;10.80;;;6.03;;
38465;SDS011;24244;51.950;5.902;2022-10-26T01:30:23;10.48;;;5.70;;
38465;SDS011;24244;51.950;5.902;2022-10-26T01:33:04;10.48;;;6.00;;
38465;SDS011;24244;51.950;5.902;2022-10-26T01:35:53;11.63;;;5.47;;
38465;SDS011;24244;51.950;5.902;2022-10-26T01:38:28;10.00;;;5.50;;
38465;SDS011;24244;51.950;5.902;2022-10-26T01:40:59;9.23;;;5.97;;
38465;SDS011;24244;51.950;5.902;2022-10-26T01:43:34;10.93;;;5.28;;
38465;SDS011;24244;51.950;5.902;2022-10-26T01:46:05;12.98;;;5.85;;
38465;SDS011;24244;51.950;5.902;2022-10-26T01:48:34;9.50;;;5.32;;
38465;SDS011;24244;51.950;5.902;2022-10-26T01:51:02;11.85;;;5.78;;
38465;SDS011;24244;51.950;5.902;2022-10-26T01:53:32;11.27;;;5.60;;
38465;SDS011;24244;51.950;5.902;2022-10-26T01:55:58;10.77;;;5.68;;
38465;SDS011;24244;51.950;5.902;2022-10-26T01:58:31;11.05;;;5.65;;
38465;SDS011;24244;51.950;5.902;2022-10-26T02:04:25;9.27;;;5.18;;
38465;SDS011;24244;51.950;5.902;2022-10-26T02:07:06;9.75;;;5.05;;
38465;SDS011;24244;51.950;5.902;2022-10-26T02:09:42;10.83;;;5.33;;
38465;SDS011;24244;51.950;5.902;2022-10-26T02:12:18;12.70;;;5.82;;
38465;SDS011;24244;51.950;5.902;2022-10-26T02:14:56;12.95;;;5.50;;
38465;SDS011;24244;51.950;5.902;2022-10-26T02:17:31;11.70;;;5.30;;
38465;SDS011;24244;51.950;5.902;2022-10-26T02:20:04;10.35;;;5.82;;
38465;SDS011;24244;51.950;5.902;2022-10-26T02:22:34;10.63;;;5.75;;
38465;SDS011;24244;51.950;5.902;2022-10-26T02:25:05;10.05;;;5.22;;
38465;SDS011;24244;51.950;5.902;2022-10-26T02:27:36;10.27;;;5.88;;
38465;SDS011;24244;51.950;5.902;2022-10-26T02:30:08;10.45;;;5.82;;
38465;SDS011;24244;51.950;5.902;2022-10-26T02:32:39;11.20;;;5.93;;
38465;SDS011;24244;51.950;5.902;2022-10-26T02:35:10;13.35;;;6.00;;
38465;SDS011;24244;51.950;5.902;2022-10-26T02:37:38;11.60;;;6.93;;
38465;SDS011;24244;51.950;5.902;2022-10-26T02:40:08;11.50;;;5.70;;
38465;SDS011;24244;51.950;5.902;2022-10-26T02:42:39;10.15;;;5.68;;
38465;SDS011;24244;51.950;5.902;2022-10-26T02:45:11;11.32;;;6.18;;
38465;SDS011;24244;51.950;5.902;2022-10-26T02:47:44;12.02;;;5.40;;
38465;SDS011;24244;51.950;5.902;2022-10-26T02:50:10;10.55;;;6.10;;
38465;SDS011;24244;51.950;5.902;2022-10-26T02:52:40;10.63;;;5.88;;
38465;SDS011;24244;51.950;5.902;2022-10-26T02:55:17;11.68;;;5.90;;
38465;SDS011;24244;51.950;5.902;2022-10-26T02:57:48;10.25;;;5.70;;
38465;SDS011;24244;51.950;5.902;2022-10-26T03:00:19;11.40;;;5.65;;
38465;SDS011;24244;51.950;5.902;2022-10-26T03:02:51;12.52;;;6.28;;
38465;SDS011;24244;51.950;5.902;2022-10-26T03:05:20;12.38;;;5.85;;
38465;SDS011;24244;51.950;5.902;2022-10-26T03:07:50;11.85;;;5.90;;
38465;SDS011;24244;51.950;5.902;2022-10-26T03:10:17;10.73;;;5.72;;
38465;SDS011;24244;51.950;5.902;2022-10-26T03:12:44;12.25;;;5.85;;
38465;SDS011;24244;51.950;5.902;2022-10-26T03:15:11;12.13;;;6.50;;
38465;SDS011;24244;51.950;5.902;2022-10-26T03:17:37;10.35;;;5.78;;
38465;SDS011;24244;51.950;5.902;2022-10-26T03:20:07;12.93;;;6.00;;
38465;SDS011;24244;51.950;5.902;2022-10-26T03:22:34;10.23;;;5.57;;
38465;SDS011;24244;51.950;5.902;2022-10-26T03:25:01;11.10;;;6.53;;
38465;SDS011;24244;51.950;5.902;2022-10-26T03:27:28;10.73;;;5.63;;
38465;SDS011;24244;51.950;5.902;2022-10-26T03:29:55;10.35;;;5.90;;
38465;SDS011;24244;51.950;5.902;2022-10-26T03:32:23;11.23;;;5.68;;
38465;SDS011;24244;51.950;5.902;2022-10-26T03:34:49;13.90;;;5.90;;
38465;SDS011;24244;51.950;5.902;2022-10-26T03:37:17;11.32;;;5.75;;
38465;SDS011;24244;51.950;5.902;2022-10-26T03:39:44;11.32;;;5.50;;
38465;SDS011;24244;51.950;5.902;2022-10-26T03:42:11;12.10;;;5.90;;
38465;SDS011;24244;51.950;5.902;2022-10-26T03:44:37;11.48;;;5.68;;
38465;SDS011;24244;51.950;5.902;2022-10-26T03:47:04;12.82;;;6.15;;
38465;SDS011;24244;51.950;5.902;2022-10-26T03:49:31;10.50;;;5.88;;
38465;SDS011;24244;51.950;5.902;2022-10-26T03:51:57;12.20;;;6.07;;
38465;SDS011;24244;51.950;5.902;2022-10-26T03:54:25;12.75;;;5.35;;
38465;SDS011;24244;51.950;5.902;2022-10-26T03:56:52;11.02;;;6.15;;
38465;SDS011;24244;51.950;5.902;2022-10-26T03:59:20;12.00;;;5.83;;
38465;SDS011;24244;51.950;5.902;2022-10-26T04:01:47;10.63;;;5.72;;
38465;SDS011;24244;51.950;5.902;2022-10-26T04:04:19;11.43;;;5.75;;
38465;SDS011;24244;51.950;5.902;2022-10-26T04:06:45;14.27;;;6.30;;
38465;SDS011;24244;51.950;5.902;2022-10-26T04:09:12;10.98;;;5.63;;
38465;SDS011;24244;51.950;5.902;2022-10-26T04:11:40;11.52;;;6.18;;
38465;SDS011;24244;51.950;5.902;2022-10-26T04:14:07;10.43;;;5.80;;
38465;SDS011;24244;51.950;5.902;2022-10-26T04:16:33;11.10;;;5.72;;
38465;SDS011;24244;51.950;5.902;2022-10-26T04:19:00;11.52;;;5.47;;
38465;SDS011;24244;51.950;5.902;2022-10-26T04:21:27;14.00;;;6.32;;
38465;SDS011;24244;51.950;5.902;2022-10-26T04:23:53;14.25;;;5.43;;
38465;SDS011;24244;51.950;5.902;2022-10-26T04:26:20;11.15;;;5.93;;
38465;SDS011;24244;51.950;5.902;2022-10-26T04:28:48;10.10;;;5.35;;
38465;SDS011;24244;51.950;5.902;2022-10-26T04:31:15;11.30;;;6.03;;
38465;SDS011;24244;51.950;5.902;2022-10-26T04:33:41;11.90;;;5.65;;
38465;SDS011;24244;51.950;5.902;2022-10-26T04:36:08;11.15;;;5.80;;
38465;SDS011;24244;51.950;5.902;2022-10-26T04:38:35;11.00;;;5.43;;
38465;SDS011;24244;51.950;5.902;2022-10-26T04:41:02;10.77;;;5.38;;
38465;SDS011;24244;51.950;5.902;2022-10-26T04:43:28;11.60;;;5.93;;
38465;SDS011;24244;51.950;5.902;2022-10-26T04:45:57;12.18;;;5.75;;
38465;SDS011;24244;51.950;5.902;2022-10-26T04:48:24;11.23;;;6.00;;
38465;SDS011;24244;51.950;5.902;2022-10-26T04:50:57;14.10;;;6.07;;
38465;SDS011;24244;51.950;5.902;2022-10-26T04:53:24;11.00;;;5.85;;
38465;SDS011;24244;51.950;5.902;2022-10-26T04:55:54;9.30;;;5.30;;
38465;SDS011;24244;51.950;5.902;2022-10-26T04:58:21;10.98;;;5.60;;
38465;SDS011;24244;51.950;5.902;2022-10-26T05:00:48;11.68;;;5.65;;
38465;SDS011;24244;51.950;5.902;2022-10-26T05:03:17;11.57;;;5.18;;
38465;SDS011;24244;51.950;5.902;2022-10-26T05:05:44;10.53;;;5.53;;
38465;SDS011;24244;51.950;5.902;2022-10-26T05:08:10;10.35;;;5.40;;
38465;SDS011;24244;51.950;5.902;2022-10-26T05:10:37;10.43;;;5.95;;
38465;SDS011;24244;51.950;5.902;2022-10-26T05:13:04;10.57;;;5.55;;
38465;SDS011;24244;51.950;5.902;2022-10-26T05:15:30;12.98;;;5.68;;
38465;SDS011;24244;51.950;5.902;2022-10-26T05:17:58;12.80;;;6.28;;
38465;SDS011;24244;51.950;5.902;2022-10-26T05:20:27;11.02;;;5.78;;
38465;SDS011;24244;51.950;5.902;2022-10-26T05:22:56;11.52;;;5.85;;
38465;SDS011;24244;51.950;5.902;2022-10-26T05:25:23;11.68;;;5.47;;
38465;SDS011;24244;51.950;5.902;2022-10-26T05:27:50;10.30;;;5.10;;
38465;SDS011;24244;51.950;5.902;2022-10-26T05:30:17;12.38;;;5.78;;
38465;SDS011;24244;51.950;5.902;2022-10-26T05:32:44;11.48;;;5.45;;
38465;SDS011;24244;51.950;5.902;2022-10-26T05:35:18;9.80;;;5.55;;
38465;SDS011;24244;51.950;5.902;2022-10-26T05:37:47;11.40;;;5.45;;
38465;SDS011;24244;51.950;5.902;2022-10-26T05:40:13;11.32;;;5.95;;
38465;SDS011;24244;51.950;5.902;2022-10-26T05:42:41;11.48;;;5.65;;
38465;SDS011;24244;51.950;5.902;2022-10-26T05:45:08;10.32;;;4.70;;
38465;SDS011;24244;51.950;5.902;2022-10-26T05:47:36;13.73;;;5.78;;
38465;SDS011;24244;51.950;5.902;2022-10-26T05:50:03;10.60;;;5.45;;
38465;SDS011;24244;51.950;5.902;2022-10-26T05:52:35;11.40;;;5.40;;
38465;SDS011;24244;51.950;5.902;2022-10-26T05:55:05;9.60;;;5.50;;
38465;SDS011;24244;51.950;5.902;2022-10-26T05:57:38;10.13;;;5.22;;
38465;SDS011;24244;51.950;5.902;2022-10-26T06:00:06;10.65;;;5.65;;
38465;SDS011;24244;51.950;5.902;2022-10-26T06:02:35;10.75;;;5.78;;
38465;SDS011;24244;51.950;5.902;2022-10-26T06:05:10;10.35;;;5.15;;
38465;SDS011;24244;51.950;5.902;2022-10-26T06:07:42;11.32;;;5.70;;
38465;SDS011;24244;51.950;5.902;2022-10-26T06:10:11;12.40;;;5.53;;
38465;SDS011;24244;51.950;5.902;2022-10-26T06:12:39;11.02;;;5.72;;
38465;SDS011;24244;51.950;5.902;2022-10-26T06:15:08;9.80;;;5.15;;
38465;SDS011;24244;51.950;5.902;2022-10-26T06:17:45;9.68;;;4.93;;
38465;SDS011;24244;51.950;5.902;2022-10-26T06:20:25;10.38;;;5.38;;
38465;SDS011;24244;51.950;5.902;2022-10-26T06:23:08;10.52;;;5.10;;
38465;SDS011;24244;51.950;5.902;2022-10-26T06:25:48;11.48;;;5.32;;
38465;SDS011;24244;51.950;5.902;2022-10-26T06:28:23;10.38;;;5.07;;
38465;SDS011;24244;51.950;5.902;2022-10-26T06:30:59;12.95;;;5.18;;
38465;SDS011;24244;51.950;5.902;2022-10-26T06:33:25;10.25;;;5.30;;
38465;SDS011;24244;51.950;5.902;2022-10-26T06:35:57;10.00;;;5.28;;
38465;SDS011;24244;51.950;5.902;2022-10-26T06:38:35;11.35;;;4.97;;
38465;SDS011;24244;51.950;5.902;2022-10-26T06:41:08;9.88;;;5.45;;
38465;SDS011;24244;51.950;5.902;2022-10-26T06:43:36;9.95;;;5.38;;
38465;SDS011;24244;51.950;5.902;2022-10-26T06:46:05;10.48;;;5.40;;
38465;SDS011;24244;51.950;5.902;2022-10-26T06:48:43;9.80;;;5.10;;
38465;SDS011;24244;51.950;5.902;2022-10-26T06:51:16;9.85;;;4.75;;
38465;SDS011;24244;51.950;5.902;2022-10-26T06:53:46;9.80;;;5.43;;
38465;SDS011;24244;51.950;5.902;2022-10-26T06:56:18;10.88;;;5.20;;
38465;SDS011;24244;51.950;5.902;2022-10-26T07:01:14;9.95;;;5.05;;
38465;SDS011;24244;51.950;5.902;2022-10-26T07:03:41;10.02;;;4.78;;
38465;SDS011;24244;51.950;5.902;2022-10-26T07:06:08;10.27;;;5.03;;
38465;SDS011;24244;51.950;5.902;2022-10-26T07:08:35;11.20;;;6.15;;
38465;SDS011;24244;51.950;5.902;2022-10-26T07:11:02;10.30;;;4.95;;
38465;SDS011;24244;51.950;5.902;2022-10-26T07:13:31;9.43;;;5.60;;
38465;SDS011;24244;51.950;5.902;2022-10-26T07:15:57;11.37;;;5.47;;
38465;SDS011;24244;51.950;5.902;2022-10-26T07:18:24;11.75;;;6.05;;
38465;SDS011;24244;51.950;5.902;2022-10-26T07:20:51;11.55;;;5.50;;
38465;SDS011;24244;51.950;5.902;2022-10-26T07:23:17;12.05;;;5.75;;
38465;SDS011;24244;51.950;5.902;2022-10-26T07:25:44;10.10;;;5.47;;
38465;SDS011;24244;51.950;5.902;2022-10-26T07:28:11;10.82;;;5.55;;
38465;SDS011;24244;51.950;5.902;2022-10-26T07:30:39;10.48;;;5.10;;
38465;SDS011;24244;51.950;5.902;2022-10-26T07:33:06;8.80;;;5.18;;
38465;SDS011;24244;51.950;5.902;2022-10-26T07:35:34;9.48;;;5.05;;
38465;SDS011;24244;51.950;5.902;2022-10-26T07:38:02;9.25;;;4.85;;
38465;SDS011;24244;51.950;5.902;2022-10-26T07:40:29;9.18;;;5.15;;
38465;SDS011;24244;51.950;5.902;2022-10-26T07:42:57;9.60;;;5.18;;
38465;SDS011;24244;51.950;5.902;2022-10-26T07:45:24;9.10;;;4.75;;
38465;SDS011;24244;51.950;5.902;2022-10-26T07:47:53;9.88;;;4.55;;
38465;SDS011;24244;51.950;5.902;2022-10-26T07:50:20;8.77;;;4.82;;
38465;SDS011;24244;51.950;5.902;2022-10-26T07:52:47;10.25;;;5.00;;
38465;SDS011;24244;51.950;5.902;2022-10-26T07:55:15;9.13;;;4.65;;
38465;SDS011;24244;51.950;5.902;2022-10-26T07:57:41;10.27;;;4.97;;
38465;SDS011;24244;51.950;5.902;2022-10-26T08:00:09;13.05;;;4.60;;
38465;SDS011;24244;51.950;5.902;2022-10-26T08:02:36;9.25;;;4.82;;
38465;SDS011;24244;51.950;5.902;2022-10-26T08:05:05;8.60;;;4.80;;
38465;SDS011;24244;51.950;5.902;2022-10-26T08:07:32;10.10;;;4.63;;
38465;SDS011;24244;51.950;5.902;2022-10-26T08:09:59;9.68;;;4.85;;
38465;SDS011;24244;51.950;5.902;2022-10-26T08:12:26;10.20;;;4.25;;
38465;SDS011;24244;51.950;5.902;2022-10-26T08:14:52;8.90;;;4.60;;
38465;SDS011;24244;51.950;5.902;2022-10-26T08:17:19;8.98;;;4.72;;
38465;SDS011;24244;51.950;5.902;2022-10-26T08:19:46;9.65;;;4.10;;
38465;SDS011;24244;51.950;5.902;2022-10-26T08:22:15;10.63;;;4.22;;
38465;SDS011;24244;51.950;5.902;2022-10-26T08:24:42;7.60;;;3.63;;
38465;SDS011;24244;51.950;5.902;2022-10-26T08:27:11;7.82;;;3.25;;
38465;SDS011;24244;51.950;5.902;2022-10-26T08:29:39;9.38;;;3.75;;
38465;SDS011;24244;51.950;5.902;2022-10-26T08:32:05;8.45;;;3.42;;
38465;SDS011;24244;51.950;5.902;2022-10-26T08:34:33;7.38;;;3.40;;
38465;SDS011;24244;51.950;5.902;2022-10-26T08:36:59;7.53;;;3.35;;
38465;SDS011;24244;51.950;5.902;2022-10-26T08:39:28;6.70;;;3.05;;
38465;SDS011;24244;51.950;5.902;2022-10-26T08:41:56;8.25;;;3.30;;
38465;SDS011;24244;51.950;5.902;2022-10-26T08:44:28;9.15;;;3.08;;
38465;SDS011;24244;51.950;5.902;2022-10-26T08:47:03;8.00;;;2.97;;
38465;SDS011;24244;51.950;5.902;2022-10-26T08:49:38;7.00;;;3.05;;
38465;SDS011;24244;51.950;5.902;2022-10-26T08:52:10;7.63;;;2.92;;
38465;SDS011;24244;51.950;5.902;2022-10-26T08:54:43;6.45;;;2.47;;
38465;SDS011;24244;51.950;5.902;2022-10-26T08:57:15;7.80;;;2.55;;
38465;SDS011;24244;51.950;5.902;2022-10-26T08:59:47;6.80;;;2.47;;
38465;SDS011;24244;51.950;5.902;2022-10-26T09:02:19;6.95;;;2.83;;
38465;SDS011;24244;51.950;5.902;2022-10-26T09:04:46;9.05;;;2.97;;
38465;SDS011;24244;51.950;5.902;2022-10-26T09:07:16;7.25;;;2.72;;
38465;SDS011;24244;51.950;5.902;2022-10-26T09:10:10;5.97;;;2.50;;
38465;SDS011;24244;51.950;5.902;2022-10-26T09:12:46;6.65;;;2.63;;
38465;SDS011;24244;51.950;5.902;2022-10-26T09:15:21;8.02;;;2.83;;
38465;SDS011;24244;51.950;5.902;2022-10-26T09:17:56;7.03;;;2.70;;
38465;SDS011;24244;51.950;5.902;2022-10-26T09:20:40;7.78;;;2.55;;
38465;SDS011;24244;51.950;5.902;2022-10-26T09:23:19;6.60;;;2.53;;
38465;SDS011;24244;51.950;5.902;2022-10-26T09:26:00;8.10;;;2.85;;
38465;SDS011;24244;51.950;5.902;2022-10-26T09:28:30;6.93;;;2.78;;
38465;SDS011;24244;51.950;5.902;2022-10-26T09:31:00;7.80;;;2.97;;
38465;SDS011;24244;51.950;5.902;2022-10-26T09:33:29;8.43;;;3.50;;
38465;SDS011;24244;51.950;5.902;2022-10-26T09:36:00;8.35;;;3.50;;
38465;SDS011;24244;51.950;5.902;2022-10-26T09:38:28;8.30;;;3.10;;
38465;SDS011;24244;51.950;5.902;2022-10-26T09:40:58;8.50;;;3.20;;
38465;SDS011;24244;51.950;5.902;2022-10-26T09:43:31;8.43;;;3.42;;
38465;SDS011;24244;51.950;5.902;2022-10-26T09:46:05;7.75;;;3.30;;
38465;SDS011;24244;51.950;5.902;2022-10-26T09:48:39;10.98;;;3.78;;
38465;SDS011;24244;51.950;5.902;2022-10-26T09:51:11;7.28;;;3.35;;
38465;SDS011;24244;51.950;5.902;2022-10-26T09:53:38;7.43;;;3.70;;
38465;SDS011;24244;51.950;5.902;2022-10-26T09:56:07;9.55;;;3.70;;
38465;SDS011;24244;51.950;5.902;2022-10-26T09:58:36;9.45;;;4.00;;
38465;SDS011;24244;51.950;5.902;2022-10-26T10:01:15;7.63;;;3.85;;
38465;SDS011;24244;51.950;5.902;2022-10-26T10:03:46;8.10;;;3.83;;
38465;SDS011;24244;51.950;5.902;2022-10-26T10:06:14;9.52;;;3.90;;
38465;SDS011;24244;51.950;5.902;2022-10-26T10:08:43;8.77;;;3.67;;
38465;SDS011;24244;51.950;5.902;2022-10-26T10:11:37;9.35;;;4.00;;
38465;SDS011;24244;51.950;5.902;2022-10-26T10:14:05;7.75;;;3.55;;
38465;SDS011;24244;51.950;5.902;2022-10-26T10:16:33;10.68;;;3.88;;
38465;SDS011;24244;51.950;5.902;2022-10-26T10:19:01;9.93;;;4.15;;
38465;SDS011;24244;51.950;5.902;2022-10-26T10:21:32;8.40;;;3.63;;
38465;SDS011;24244;51.950;5.902;2022-10-26T10:24:01;8.57;;;3.97;;
38465;SDS011;24244;51.950;5.902;2022-10-26T10:26:28;8.05;;;3.85;;
38465;SDS011;24244;51.950;5.902;2022-10-26T10:28:56;10.07;;;4.10;;
38465;SDS011;24244;51.950;5.902;2022-10-26T10:31:28;8.93;;;3.60;;
38465;SDS011;24244;51.950;5.902;2022-10-26T10:33:55;8.82;;;4.00;;
38465;SDS011;24244;51.950;5.902;2022-10-26T10:36:23;7.95;;;3.58;;
38465;SDS011;24244;51.950;5.902;2022-10-26T10:38:52;8.55;;;3.83;;
38465;SDS011;24244;51.950;5.902;2022-10-26T10:41:24;8.77;;;3.67;;
38465;SDS011;24244;51.950;5.902;2022-10-26T10:44:02;8.52;;;3.45;;
38465;SDS011;24244;51.950;5.902;2022-10-26T10:46:32;7.80;;;3.17;;
38465;SDS011;24244;51.950;5.902;2022-10-26T10:49:02;9.85;;;3.45;;
38465;SDS011;24244;51.950;5.902;2022-10-26T10:51:33;9.30;;;3.90;;
38465;SDS011;24244;51.950;5.902;2022-10-26T10:54:04;9.25;;;3.20;;
38465;SDS011;24244;51.950;5.902;2022-10-26T10:56:37;9.88;;;3.50;;
38465;SDS011;24244;51.950;5.902;2022-10-26T11:02:27;8.55;;;3.33;;
38465;SDS011;24244;51.950;5.902;2022-10-26T11:05:19;8.73;;;3.30;;
38465;SDS011;24244;51.950;5.902;2022-10-26T11:07:53;8.20;;;3.55;;
38465;SDS011;24244;51.950;5.902;2022-10-26T11:10:23;7.60;;;3.42;;
38465;SDS011;24244;51.950;5.902;2022-10-26T11:12:54;7.68;;;3.13;;
38465;SDS011;24244;51.950;5.902;2022-10-26T11:15:25;8.55;;;3.38;;
38465;SDS011;24244;51.950;5.902;2022-10-26T11:17:57;9.23;;;3.20;;
38465;SDS011;24244;51.950;5.902;2022-10-26T11:20:30;8.48;;;3.15;;
38465;SDS011;24244;51.950;5.902;2022-10-26T11:23:01;9.38;;;3.03;;
38465;SDS011;24244;51.950;5.902;2022-10-26T11:25:34;7.63;;;3.22;;
38465;SDS011;24244;51.950;5.902;2022-10-26T11:28:10;9.88;;;3.00;;
38465;SDS011;24244;51.950;5.902;2022-10-26T11:30:42;7.18;;;2.90;;
38465;SDS011;24244;51.950;5.902;2022-10-26T11:33:15;9.70;;;3.50;;
38465;SDS011;24244;51.950;5.902;2022-10-26T11:35:44;7.45;;;3.10;;
38465;SDS011;24244;51.950;5.902;2022-10-26T11:38:16;8.73;;;3.13;;
38465;SDS011;24244;51.950;5.902;2022-10-26T11:41:10;6.97;;;2.78;;
38465;SDS011;24244;51.950;5.902;2022-10-26T11:43:44;7.13;;;2.90;;
38465;SDS011;24244;51.950;5.902;2022-10-26T11:46:16;7.85;;;2.90;;
38465;SDS011;24244;51.950;5.902;2022-10-26T11:48:46;7.35;;;2.60;;
38465;SDS011;24244;51.950;5.902;2022-10-26T11:51:21;6.90;;;2.70;;
38465;SDS011;24244;51.950;5.902;2022-10-26T11:56:30;8.23;;;2.80;;
38465;SDS011;24244;51.950;5.902;2022-10-26T11:59:02;7.53;;;2.80;;
38465;SDS011;24244;51.950;5.902;2022-10-26T12:01:32;7.33;;;2.20;;
38465;SDS011;24244;51.950;5.902;2022-10-26T12:03:59;7.38;;;2.50;;
38465;SDS011;24244;51.950;5.902;2022-10-26T12:06:29;6.30;;;2.72;;
38465;SDS011;24244;51.950;5.902;2022-10-26T12:08:58;6.97;;;3.10;;
38465;SDS011;24244;51.950;5.902;2022-10-26T12:11:33;7.90;;;3.20;;
38465;SDS011;24244;51.950;5.902;2022-10-26T12:14:06;8.25;;;3.17;;
38465;SDS011;24244;51.950;5.902;2022-10-26T12:16:43;7.22;;;3.08;;
38465;SDS011;24244;51.950;5.902;2022-10-26T12:19:17;6.97;;;2.70;;
38465;SDS011;24244;51.950;5.902;2022-10-26T12:21:50;7.88;;;2.80;;
38465;SDS011;24244;51.950;5.902;2022-10-26T12:24:24;7.10;;;2.90;;
38465;SDS011;24244;51.950;5.902;2022-10-26T12:26:54;8.07;;;3.20;;
38465;SDS011;24244;51.950;5.902;2022-10-26T12:29:27;6.28;;;2.80;;
38465;SDS011;24244;51.950;5.902;2022-10-26T12:38:26;5.97;;;2.55;;
38465;SDS011;24244;51.950;5.902;2022-10-26T12:41:12;7.22;;;2.85;;
38465;SDS011;24244;51.950;5.902;2022-10-26T12:43:44;6.60;;;2.88;;
38465;SDS011;24244;51.950;5.902;2022-10-26T12:52:38;5.82;;;2.40;;
38465;SDS011;24244;51.950;5.902;2022-10-26T12:58:21;5.72;;;2.47;;
38465;SDS011;24244;51.950;5.902;2022-10-26T13:01:07;8.52;;;2.88;;
38465;SDS011;24244;51.950;5.902;2022-10-26T13:03:45;6.53;;;2.43;;
38465;SDS011;24244;51.950;5.902;2022-10-26T13:06:25;6.50;;;2.90;;
38465;SDS011;24244;51.950;5.902;2022-10-26T13:09:07;8.43;;;3.00;;
38465;SDS011;24244;51.950;5.902;2022-10-26T13:11:45;7.38;;;2.80;;
38465;SDS011;24244;51.950;5.902;2022-10-26T13:14:17;6.75;;;2.92;;
38465;SDS011;24244;51.950;5.902;2022-10-26T13:16:46;6.95;;;2.92;;
38465;SDS011;24244;51.950;5.902;2022-10-26T13:19:21;6.95;;;3.30;;
38465;SDS011;24244;51.950;5.902;2022-10-26T13:21:49;5.78;;;2.83;;
38465;SDS011;24244;51.950;5.902;2022-10-26T13:24:18;8.43;;;3.78;;
38465;SDS011;24244;51.950;5.902;2022-10-26T13:32:47;8.98;;;3.70;;
38465;SDS011;24244;51.950;5.902;2022-10-26T13:35:16;7.57;;;3.67;;
38465;SDS011;24244;51.950;5.902;2022-10-26T13:37:46;6.07;;;3.40;;
38465;SDS011;24244;51.950;5.902;2022-10-26T13:40:18;6.60;;;3.38;;
38465;SDS011;24244;51.950;5.902;2022-10-26T13:42:47;6.85;;;3.70;;
38465;SDS011;24244;51.950;5.902;2022-10-26T13:45:17;6.97;;;3.83;;
38465;SDS011;24244;51.950;5.902;2022-10-26T13:47:47;7.47;;;4.30;;
38465;SDS011;24244;51.950;5.902;2022-10-26T13:50:22;8.30;;;3.95;;
38465;SDS011;24244;51.950;5.902;2022-10-26T13:52:56;8.75;;;3.88;;
38465;SDS011;24244;51.950;5.902;2022-10-26T13:55:29;7.57;;;4.05;;
38465;SDS011;24244;51.950;5.902;2022-10-26T13:58:08;7.60;;;3.95;;
38465;SDS011;24244;51.950;5.902;2022-10-26T14:03:28;7.65;;;4.10;;
38465;SDS011;24244;51.950;5.902;2022-10-26T14:05:54;7.72;;;4.03;;
38465;SDS011;24244;51.950;5.902;2022-10-26T14:08:21;8.00;;;4.15;;
38465;SDS011;24244;51.950;5.902;2022-10-26T14:10:52;7.57;;;3.85;;
38465;SDS011;24244;51.950;5.902;2022-10-26T14:13:22;7.15;;;3.65;;
38465;SDS011;24244;51.950;5.902;2022-10-26T14:15:52;8.23;;;3.53;;
38465;SDS011;24244;51.950;5.902;2022-10-26T14:18:22;7.57;;;3.58;;
38465;SDS011;24244;51.950;5.902;2022-10-26T14:20:53;7.07;;;3.60;;
38465;SDS011;24244;51.950;5.902;2022-10-26T14:23:26;6.95;;;3.25;;
38465;SDS011;24244;51.950;5.902;2022-10-26T14:25:55;6.60;;;3.42;;
38465;SDS011;24244;51.950;5.902;2022-10-26T14:28:25;6.60;;;3.30;;
38465;SDS011;24244;51.950;5.902;2022-10-26T14:31:01;6.85;;;3.17;;
38465;SDS011;24244;51.950;5.902;2022-10-26T14:33:37;7.20;;;3.00;;
38465;SDS011;24244;51.950;5.902;2022-10-26T14:36:04;6.10;;;2.63;;
38465;SDS011;24244;51.950;5.902;2022-10-26T14:38:33;7.88;;;2.70;;
38465;SDS011;24244;51.950;5.902;2022-10-26T14:41:09;6.18;;;2.53;;
38465;SDS011;24244;51.950;5.902;2022-10-26T14:43:37;6.60;;;2.40;;
38465;SDS011;24244;51.950;5.902;2022-10-26T14:46:04;6.07;;;2.30;;
38465;SDS011;24244;51.950;5.902;2022-10-26T14:48:32;5.65;;;2.17;;
38465;SDS011;24244;51.950;5.902;2022-10-26T14:51:00;6.47;;;2.35;;
38465;SDS011;24244;51.950;5.902;2022-10-26T14:53:30;6.63;;;2.20;;
38465;SDS011;24244;51.950;5.902;2022-10-26T14:56:02;5.85;;;1.90;;
38465;SDS011;24244;51.950;5.902;2022-10-26T14:58:31;7.78;;;2.13;;
38465;SDS011;24244;51.950;5.902;2022-10-26T15:03:51;4.47;;;1.70;;
38465;SDS011;24244;51.950;5.902;2022-10-26T15:06:20;6.50;;;1.80;;
38465;SDS011;24244;51.950;5.902;2022-10-26T15:08:53;5.63;;;1.67;;
38465;SDS011;24244;51.950;5.902;2022-10-26T15:11:22;5.28;;;1.70;;
38465;SDS011;24244;51.950;5.902;2022-10-26T15:13:51;6.45;;;1.80;;
38465;SDS011;24244;51.950;5.902;2022-10-26T15:16:19;6.28;;;1.90;;
38465;SDS011;24244;51.950;5.902;2022-10-26T15:18:48;5.68;;;2.00;;
38465;SDS011;24244;51.950;5.902;2022-10-26T15:21:22;6.78;;;2.00;;
38465;SDS011;24244;51.950;5.902;2022-10-26T15:23:51;4.90;;;1.70;;
38465;SDS011;24244;51.950;5.902;2022-10-26T15:26:19;4.38;;;1.45;;
38465;SDS011;24244;51.950;5.902;2022-10-26T15:28:46;4.93;;;1.73;;
38465;SDS011;24244;51.950;5.902;2022-10-26T15:31:29;4.57;;;1.58;;
38465;SDS011;24244;51.950;5.902;2022-10-26T15:34:13;4.93;;;1.70;;
38465;SDS011;24244;51.950;5.902;2022-10-26T15:36:40;5.32;;;1.52;;
38465;SDS011;24244;51.950;5.902;2022-10-26T15:39:08;5.53;;;1.70;;
38465;SDS011;24244;51.950;5.902;2022-10-26T15:41:36;6.25;;;2.00;;